createdAt,value
2022-10-28T00:00:45.027Z,15.05
2022-10-28T00:05:49.545Z,14.97
2022-10-28T00:10:54.748Z,15.02
2022-10-28T00:16:04.036Z,14.97
2022-10-28T00:21:11.444Z,14.97
2022-10-28T00:26:16.187Z,15.08
2022-10-28T00:31:21.098Z,15.05
2022-10-28T00:36:27.560Z,14.93
2022-10-28T00:41:31.777Z,14.74
2022-10-28T00:46:46.880Z,14.69
2022-10-28T00:51:55.005Z,14.60
2022-10-28T00:57:00.503Z,14.64
2022-10-28T01:02:03.538Z,14.55
2022-10-28T01:07:07.969Z,14.59
2022-10-28T01:12:21.230Z,14.62
2022-10-28T01:17:32.881Z,14.57
2022-10-28T01:22:42.413Z,14.62
2022-10-28T01:28:07.208Z,14.64
2022-10-28T01:33:19.304Z,14.63
2022-10-28T01:38:34.316Z,14.71
2022-10-28T01:43:47.231Z,14.66
2022-10-28T01:48:58.148Z,14.72
2022-10-28T01:54:04.731Z,14.69
2022-10-28T01:59:10.793Z,14.70
2022-10-28T02:04:15.277Z,14.64
2022-10-28T02:09:28.811Z,14.55
2022-10-28T02:14:49.344Z,14.62
2022-10-28T02:20:05.428Z,14.48
2022-10-28T02:25:14.293Z,14.66
2022-10-28T02:30:21.738Z,14.65
2022-10-28T02:35:30.669Z,14.51
2022-10-28T02:40:36.054Z,14.63
2022-10-28T02:45:42.529Z,14.63
2022-10-28T02:50:51.145Z,14.63
2022-10-28T02:55:56.572Z,14.67
2022-10-28T03:00:59.375Z,14.69
2022-10-28T03:06:03.616Z,14.74
2022-10-28T03:11:06.788Z,14.71
2022-10-28T03:16:09.819Z,14.77
2022-10-28T03:21:13.969Z,14.64
2022-10-28T03:26:16.830Z,14.59
2022-10-28T03:31:19.844Z,14.69
2022-10-28T03:36:24.019Z,14.72
2022-10-28T03:41:26.860Z,14.70
2022-10-28T03:46:32.248Z,14.69
2022-10-28T03:51:39.258Z,14.74
2022-10-28T03:56:42.054Z,14.73
2022-10-28T04:01:45.035Z,14.73
2022-10-28T04:06:49.246Z,14.68
2022-10-28T04:11:52.162Z,14.62
2022-10-28T04:16:55.010Z,14.57
2022-10-28T04:21:59.221Z,14.56
2022-10-28T04:27:01.960Z,14.56
2022-10-28T04:32:04.985Z,14.58
2022-10-28T04:37:09.156Z,14.67
2022-10-28T04:42:11.900Z,14.73
2022-10-28T04:47:14.637Z,14.77
2022-10-28T04:52:18.753Z,14.77
2022-10-28T04:57:21.570Z,14.79
2022-10-28T05:02:24.481Z,14.80
2022-10-28T05:07:28.862Z,14.85
2022-10-28T05:12:31.712Z,14.83
2022-10-28T05:17:34.604Z,14.75
2022-10-28T05:22:39.309Z,14.73
2022-10-28T05:27:42.133Z,14.60
2022-10-28T05:32:44.972Z,14.65
2022-10-28T05:37:49.281Z,14.64
2022-10-28T05:42:52.425Z,14.59
2022-10-28T05:47:55.799Z,14.55
2022-10-28T05:53:00.133Z,14.54
2022-10-28T05:58:03.682Z,14.59
2022-10-28T06:03:09.451Z,14.56
2022-10-28T06:08:14.208Z,14.58
2022-10-28T06:13:15.477Z,14.59
2022-10-28T06:18:19.021Z,14.59
2022-10-28T06:23:24.285Z,14.61
2022-10-28T06:28:28.025Z,14.66
2022-10-28T06:33:31.534Z,14.74
2022-10-28T06:38:35.862Z,14.82
2022-10-28T06:43:38.725Z,14.90
2022-10-28T06:48:43.131Z,15.03
2022-10-28T06:53:49.816Z,15.24
2022-10-28T06:58:53.019Z,15.57
2022-10-28T07:03:55.787Z,15.78
2022-10-28T07:08:59.927Z,15.89
2022-10-28T07:14:02.741Z,15.91
2022-10-28T07:19:05.690Z,15.83
2022-10-28T07:24:10.283Z,15.96
2022-10-28T07:29:13.123Z,15.96
2022-10-28T07:34:15.994Z,16.01
2022-10-28T07:39:20.592Z,15.86
2022-10-28T07:44:23.416Z,16.02
2022-10-28T07:49:26.263Z,16.76
2022-10-28T07:54:31.900Z,17.15
2022-10-28T07:59:34.709Z,17.60
2022-10-28T08:04:37.547Z,17.95
2022-10-28T08:09:42.200Z,18.21
2022-10-28T08:14:44.998Z,18.65
2022-10-28T08:19:48.294Z,18.79
2022-10-28T08:24:52.495Z,19.07
2022-10-28T08:29:55.263Z,19.44
2022-10-28T08:34:58.078Z,19.89
2022-10-28T08:40:02.217Z,20.39
2022-10-28T08:45:21.169Z,20.60
2022-10-28T08:50:25.922Z,21.12
2022-10-28T08:55:35.031Z,20.50
2022-10-28T09:00:37.884Z,20.65
2022-10-28T09:05:42.304Z,20.55
2022-10-28T09:11:04.534Z,21.23
2022-10-28T09:16:16.280Z,21.32
2022-10-28T09:21:24.750Z,21.35
2022-10-28T09:26:42.071Z,21.78
2022-10-28T09:31:48.408Z,21.70
2022-10-28T09:36:55.780Z,21.94
2022-10-28T09:42:01.887Z,21.65
2022-10-28T09:47:14.096Z,21.60
2022-10-28T09:52:20.982Z,21.17
2022-10-28T09:57:30.622Z,21.68
2022-10-28T10:02:36.022Z,21.79
2022-10-28T10:07:44.490Z,22.27
2022-10-28T10:12:52.393Z,22.84
2022-10-28T10:18:00.287Z,22.97
2022-10-28T10:23:03.040Z,23.40
2022-10-28T10:28:16.772Z,23.45
2022-10-28T10:33:22.735Z,24.03
2022-10-28T10:38:27.521Z,24.80
2022-10-28T10:43:36.430Z,25.30
2022-10-28T10:48:39.525Z,25.45
2022-10-28T10:53:42.522Z,25.89
2022-10-28T10:58:52.565Z,25.68
2022-10-28T11:03:59.955Z,25.53
2022-10-28T11:09:05.225Z,26.53
2022-10-28T11:14:24.292Z,25.34
2022-10-28T11:19:30.668Z,24.53
2022-10-28T11:24:47.904Z,24.31
2022-10-28T11:29:52.118Z,24.06
2022-10-28T11:35:24.221Z,24.87
2022-10-28T11:40:35.579Z,25.46
2022-10-28T11:45:48.682Z,24.90
2022-10-28T11:51:11.858Z,25.02
2022-10-28T11:56:28.255Z,24.65
2022-10-28T12:01:45.731Z,25.18
2022-10-28T12:07:05.994Z,25.53
2022-10-28T12:12:18.343Z,25.58
2022-10-28T12:17:29.790Z,25.60
2022-10-28T12:22:38.024Z,25.50
2022-10-28T12:27:44.685Z,25.38
2022-10-28T12:32:51.012Z,24.95
2022-10-28T12:38:02.050Z,24.90
2022-10-28T12:43:11.853Z,24.75
2022-10-28T12:48:22.551Z,24.17
2022-10-28T12:53:35.491Z,24.11
2022-10-28T12:58:43.058Z,24.88
2022-10-28T13:03:47.326Z,24.86
2022-10-28T13:09:17.692Z,25.04
2022-10-28T13:15:06.336Z,24.90
2022-10-28T13:20:20.461Z,24.82
2022-10-28T13:25:39.494Z,24.95
2022-10-28T13:30:54.070Z,25.03
2022-10-28T13:36:11.523Z,24.96
2022-10-28T13:41:47.941Z,25.06
2022-10-28T13:47:26.254Z,25.21
2022-10-28T13:52:30.374Z,24.91
2022-10-28T13:57:36.091Z,24.81
2022-10-28T14:02:40.864Z,24.70
2022-10-28T14:07:57.074Z,24.46
2022-10-28T14:13:02.770Z,24.47
2022-10-28T14:18:37.384Z,24.36
2022-10-28T14:24:16.517Z,24.39
2022-10-28T14:29:30.757Z,24.37
2022-10-28T14:34:41.884Z,24.18
2022-10-28T14:39:58.313Z,23.91
2022-10-28T14:45:22.464Z,23.67
2022-10-28T14:50:30.067Z,23.40
2022-10-28T14:55:34.995Z,23.32
2022-10-28T15:00:47.079Z,23.27
2022-10-28T15:05:49.895Z,23.18
2022-10-28T15:10:52.851Z,23.09
2022-10-28T15:15:59.435Z,22.98
2022-10-28T15:21:09.813Z,22.83
2022-10-28T15:26:14.363Z,22.68
2022-10-28T15:31:18.795Z,22.52
2022-10-28T15:36:23.346Z,22.32
2022-10-28T15:41:49.305Z,22.06
2022-10-28T15:46:54.369Z,21.87
2022-10-28T15:52:22.242Z,21.76
2022-10-28T15:57:27.711Z,21.66
2022-10-28T16:02:56.893Z,21.70
2022-10-28T16:08:00.495Z,21.67
2022-10-28T16:13:07.688Z,21.59
2022-10-28T16:18:14.987Z,21.39
2022-10-28T16:23:18.746Z,21.40
2022-10-28T16:28:25.754Z,21.30
2022-10-28T16:33:33.048Z,21.15
2022-10-28T16:38:36.036Z,21.07
2022-10-28T16:43:38.878Z,21.02
2022-10-28T16:48:43.025Z,20.88
2022-10-28T16:53:49.566Z,20.78
2022-10-28T16:58:52.337Z,20.65
2022-10-28T17:03:56.427Z,20.79
2022-10-28T17:09:03.563Z,20.59
2022-10-28T17:14:06.757Z,20.54
2022-10-28T17:19:10.884Z,20.48
2022-10-28T17:24:13.823Z,20.23
2022-10-28T17:29:16.556Z,20.21
2022-10-28T17:34:20.907Z,20.19
2022-10-28T17:39:26.422Z,19.73
2022-10-28T17:44:29.563Z,19.96
2022-10-28T17:49:36.312Z,19.82
2022-10-28T17:54:39.101Z,20.01
2022-10-28T17:59:41.821Z,19.61
2022-10-28T18:04:45.923Z,19.73
2022-10-28T18:09:48.739Z,19.81
2022-10-28T18:14:51.611Z,19.72
2022-10-28T18:19:57.658Z,19.62
2022-10-28T18:25:00.431Z,19.50
2022-10-28T18:30:03.174Z,19.52
2022-10-28T18:35:08.083Z,19.17
2022-10-28T18:40:11.811Z,19.25
2022-10-28T18:45:14.780Z,19.26
2022-10-28T18:50:19.032Z,18.90
2022-10-28T18:55:21.781Z,18.99
2022-10-28T19:00:24.687Z,18.82
2022-10-28T19:05:28.882Z,18.99
2022-10-28T19:10:31.707Z,18.82
2022-10-28T19:15:39.109Z,18.67
2022-10-28T19:20:43.257Z,18.73
2022-10-28T19:25:55.898Z,18.73
2022-10-28T19:31:04.300Z,18.72
2022-10-28T19:36:14.330Z,18.86
2022-10-28T19:41:20.376Z,18.80
2022-10-28T19:46:23.486Z,18.73
2022-10-28T19:51:29.422Z,18.70
2022-10-28T19:56:34.308Z,18.66
2022-10-28T20:01:39.278Z,18.61
2022-10-28T20:06:43.907Z,18.57
2022-10-28T20:11:46.663Z,18.65
2022-10-28T20:16:49.537Z,18.46
2022-10-28T20:21:53.748Z,18.52
2022-10-28T20:26:56.574Z,18.50
2022-10-28T20:31:59.393Z,18.39
2022-10-28T20:37:03.544Z,18.46
2022-10-28T20:42:06.371Z,18.42
2022-10-28T20:47:09.200Z,18.39
2022-10-28T20:52:16.551Z,18.30
2022-10-28T20:57:19.434Z,18.21
2022-10-28T21:02:22.333Z,18.17
2022-10-28T21:07:26.808Z,18.19
2022-10-28T21:12:29.567Z,18.21
2022-10-28T21:17:32.315Z,18.22
2022-10-28T21:22:36.600Z,18.13
2022-10-28T21:27:39.380Z,18.01
2022-10-28T21:32:42.142Z,18.02
2022-10-28T21:37:49.656Z,17.99
2022-10-28T21:42:52.554Z,17.88
2022-10-28T21:47:55.972Z,17.83
2022-10-28T21:53:03.835Z,17.80
2022-10-28T21:58:07.080Z,17.68
2022-10-28T22:03:10.363Z,17.63
2022-10-28T22:08:14.498Z,17.61
2022-10-28T22:13:17.316Z,17.52
2022-10-28T22:18:20.120Z,17.47
2022-10-28T22:23:24.581Z,17.35
2022-10-28T22:28:27.452Z,17.24
2022-10-28T22:33:30.293Z,17.10
2022-10-28T22:38:34.806Z,17.01
2022-10-28T22:43:37.702Z,16.98
2022-10-28T22:48:40.540Z,16.94
2022-10-28T22:53:45.327Z,16.93
2022-10-28T22:58:48.402Z,16.93
2022-10-28T23:03:52.990Z,16.91
2022-10-28T23:08:57.164Z,16.89
2022-10-28T23:13:59.962Z,16.86
2022-10-28T23:19:02.731Z,16.80
2022-10-28T23:24:07.755Z,16.98
2022-10-28T23:29:10.510Z,16.99
2022-10-28T23:34:13.272Z,16.96
2022-10-28T23:39:17.391Z,16.83
2022-10-28T23:44:20.111Z,16.87
2022-10-28T23:49:22.854Z,16.88
2022-10-28T23:54:27.151Z,16.81
2022-10-28T23:59:29.922Z,16.86
